sensor_id;sensor_type;location;lat;lon;timestamp;P1;durP1;ratioP1;P2;durP2;ratioP2
36351;SDS011;22382;44.768;17.206;2022-09-13T00:01:26;5.10;;;2.70;;
36351;SDS011;22382;44.768;17.206;2022-09-13T00:03:53;5.85;;;2.67;;
36351;SDS011;22382;44.768;17.206;2022-09-13T00:06:21;4.13;;;2.65;;
36351;SDS011;22382;44.768;17.206;2022-09-13T00:08:48;5.03;;;2.78;;
36351;SDS011;22382;44.768;17.206;2022-09-13T00:11:17;3.47;;;2.28;;
36351;SDS011;22382;44.768;17.206;2022-09-13T00:13:52;4.20;;;2.90;;
36351;SDS011;22382;44.768;17.206;2022-09-13T00:16:20;5.88;;;2.47;;
36351;SDS011;22382;44.768;17.206;2022-09-13T00:18:48;8.32;;;2.80;;
36351;SDS011;22382;44.768;17.206;2022-09-13T00:21:17;4.05;;;2.50;;
36351;SDS011;22382;44.768;17.206;2022-09-13T00:23:46;3.05;;;2.67;;
36351;SDS011;22382;44.768;17.206;2022-09-13T00:26:16;3.03;;;2.55;;
36351;SDS011;22382;44.768;17.206;2022-09-13T00:28:47;4.20;;;2.80;;
36351;SDS011;22382;44.768;17.206;2022-09-13T00:31:17;3.45;;;2.65;;
36351;SDS011;22382;44.768;17.206;2022-09-13T00:33:45;11.88;;;2.83;;
36351;SDS011;22382;44.768;17.206;2022-09-13T00:36:12;4.75;;;2.85;;
36351;SDS011;22382;44.768;17.206;2022-09-13T00:38:40;5.82;;;3.08;;
36351;SDS011;22382;44.768;17.206;2022-09-13T00:41:11;4.95;;;2.53;;
36351;SDS011;22382;44.768;17.206;2022-09-13T00:46:15;5.47;;;2.55;;
36351;SDS011;22382;44.768;17.206;2022-09-13T00:52:06;4.05;;;2.60;;
36351;SDS011;22382;44.768;17.206;2022-09-13T00:54:39;7.95;;;2.60;;
36351;SDS011;22382;44.768;17.206;2022-09-13T00:57:22;5.13;;;2.50;;
36351;SDS011;22382;44.768;17.206;2022-09-13T00:59:52;3.10;;;2.42;;
36351;SDS011;22382;44.768;17.206;2022-09-13T01:02:22;7.63;;;3.38;;
36351;SDS011;22382;44.768;17.206;2022-09-13T01:04:49;5.50;;;3.30;;
36351;SDS011;22382;44.768;17.206;2022-09-13T01:07:16;5.68;;;2.88;;
36351;SDS011;22382;44.768;17.206;2022-09-13T01:09:44;5.40;;;3.33;;
36351;SDS011;22382;44.768;17.206;2022-09-13T01:14:48;8.40;;;2.80;;
36351;SDS011;22382;44.768;17.206;2022-09-13T01:17:17;4.05;;;3.60;;
36351;SDS011;22382;44.768;17.206;2022-09-13T01:19:44;7.22;;;3.20;;
36351;SDS011;22382;44.768;17.206;2022-09-13T01:31:21;8.13;;;3.95;;
36351;SDS011;22382;44.768;17.206;2022-09-13T01:39:10;5.82;;;3.00;;
36351;SDS011;22382;44.768;17.206;2022-09-13T01:47:02;4.78;;;3.25;;
36351;SDS011;22382;44.768;17.206;2022-09-13T01:52:29;7.55;;;3.00;;
36351;SDS011;22382;44.768;17.206;2022-09-13T02:00:44;8.43;;;3.53;;
36351;SDS011;22382;44.768;17.206;2022-09-13T02:03:36;4.20;;;3.17;;
36351;SDS011;22382;44.768;17.206;2022-09-13T02:06:22;3.65;;;2.65;;
36351;SDS011;22382;44.768;17.206;2022-09-13T02:08:53;7.40;;;3.20;;
36351;SDS011;22382;44.768;17.206;2022-09-13T02:14:01;5.78;;;3.00;;
36351;SDS011;22382;44.768;17.206;2022-09-13T02:17:11;4.40;;;2.85;;
36351;SDS011;22382;44.768;17.206;2022-09-13T02:19:42;4.15;;;3.08;;
36351;SDS011;22382;44.768;17.206;2022-09-13T02:22:17;6.03;;;3.08;;
36351;SDS011;22382;44.768;17.206;2022-09-13T02:24:50;7.15;;;3.58;;
36351;SDS011;22382;44.768;17.206;2022-09-13T02:27:22;4.60;;;2.67;;
36351;SDS011;22382;44.768;17.206;2022-09-13T02:29:54;7.65;;;3.42;;
36351;SDS011;22382;44.768;17.206;2022-09-13T02:32:30;3.03;;;2.45;;
36351;SDS011;22382;44.768;17.206;2022-09-13T02:35:05;6.40;;;3.00;;
36351;SDS011;22382;44.768;17.206;2022-09-13T02:37:39;8.18;;;3.25;;
36351;SDS011;22382;44.768;17.206;2022-09-13T02:40:14;6.07;;;3.83;;
36351;SDS011;22382;44.768;17.206;2022-09-13T02:42:53;7.97;;;3.13;;
36351;SDS011;22382;44.768;17.206;2022-09-13T02:45:28;7.30;;;3.33;;
36351;SDS011;22382;44.768;17.206;2022-09-13T02:48:07;5.85;;;3.42;;
36351;SDS011;22382;44.768;17.206;2022-09-13T02:53:56;5.18;;;4.32;;
36351;SDS011;22382;44.768;17.206;2022-09-13T02:56:52;7.03;;;4.63;;
36351;SDS011;22382;44.768;17.206;2022-09-13T02:59:26;7.30;;;4.78;;
36351;SDS011;22382;44.768;17.206;2022-09-13T03:01:56;9.18;;;4.00;;
36351;SDS011;22382;44.768;17.206;2022-09-13T03:04:27;7.75;;;3.92;;
36351;SDS011;22382;44.768;17.206;2022-09-13T03:06:54;8.30;;;4.57;;
36351;SDS011;22382;44.768;17.206;2022-09-13T03:09:21;9.63;;;4.47;;
36351;SDS011;22382;44.768;17.206;2022-09-13T03:14:21;5.72;;;4.03;;
36351;SDS011;22382;44.768;17.206;2022-09-13T03:19:56;9.80;;;5.15;;
36351;SDS011;22382;44.768;17.206;2022-09-13T03:30:12;7.57;;;3.60;;
36351;SDS011;22382;44.768;17.206;2022-09-13T03:32:51;6.07;;;3.37;;
36351;SDS011;22382;44.768;17.206;2022-09-13T03:41:32;4.25;;;2.80;;
36351;SDS011;22382;44.768;17.206;2022-09-13T03:44:05;5.43;;;3.40;;
36351;SDS011;22382;44.768;17.206;2022-09-13T03:46:40;5.38;;;3.40;;
36351;SDS011;22382;44.768;17.206;2022-09-13T03:49:11;6.13;;;3.42;;
36351;SDS011;22382;44.768;17.206;2022-09-13T03:51:42;4.35;;;3.20;;
36351;SDS011;22382;44.768;17.206;2022-09-13T03:54:14;5.88;;;3.10;;
36351;SDS011;22382;44.768;17.206;2022-09-13T03:57:04;7.65;;;3.63;;
36351;SDS011;22382;44.768;17.206;2022-09-13T03:59:32;4.13;;;3.30;;
36351;SDS011;22382;44.768;17.206;2022-09-13T04:02:02;3.55;;;2.75;;
36351;SDS011;22382;44.768;17.206;2022-09-13T04:04:29;8.70;;;3.22;;
36351;SDS011;22382;44.768;17.206;2022-09-13T04:06:58;4.15;;;3.10;;
36351;SDS011;22382;44.768;17.206;2022-09-13T04:09:29;5.15;;;3.60;;
36351;SDS011;22382;44.768;17.206;2022-09-13T04:11:56;6.20;;;3.08;;
36351;SDS011;22382;44.768;17.206;2022-09-13T04:14:24;6.25;;;3.22;;
36351;SDS011;22382;44.768;17.206;2022-09-13T04:16:54;5.75;;;3.30;;
36351;SDS011;22382;44.768;17.206;2022-09-13T04:19:22;8.38;;;3.42;;
36351;SDS011;22382;44.768;17.206;2022-09-13T04:21:51;6.88;;;3.60;;
36351;SDS011;22382;44.768;17.206;2022-09-13T04:24:19;8.20;;;3.10;;
36351;SDS011;22382;44.768;17.206;2022-09-13T04:26:49;5.22;;;3.15;;
36351;SDS011;22382;44.768;17.206;2022-09-13T04:29:17;4.43;;;3.03;;
36351;SDS011;22382;44.768;17.206;2022-09-13T04:31:44;5.20;;;2.90;;
36351;SDS011;22382;44.768;17.206;2022-09-13T04:34:12;6.82;;;3.45;;
36351;SDS011;22382;44.768;17.206;2022-09-13T04:36:39;5.60;;;2.95;;
36351;SDS011;22382;44.768;17.206;2022-09-13T04:39:06;4.60;;;3.35;;
36351;SDS011;22382;44.768;17.206;2022-09-13T04:41:33;6.03;;;3.72;;
36351;SDS011;22382;44.768;17.206;2022-09-13T04:44:01;9.15;;;4.22;;
36351;SDS011;22382;44.768;17.206;2022-09-13T04:46:28;8.38;;;4.18;;
36351;SDS011;22382;44.768;17.206;2022-09-13T04:48:55;9.60;;;5.57;;
36351;SDS011;22382;44.768;17.206;2022-09-13T04:51:22;8.93;;;4.70;;
36351;SDS011;22382;44.768;17.206;2022-09-13T04:53:52;7.35;;;5.13;;
36351;SDS011;22382;44.768;17.206;2022-09-13T04:56:21;8.60;;;4.50;;
36351;SDS011;22382;44.768;17.206;2022-09-13T04:58:52;4.25;;;3.20;;
36351;SDS011;22382;44.768;17.206;2022-09-13T05:01:20;5.97;;;4.40;;
36351;SDS011;22382;44.768;17.206;2022-09-13T05:03:53;6.82;;;3.20;;
36351;SDS011;22382;44.768;17.206;2022-09-13T05:06:21;8.38;;;5.70;;
36351;SDS011;22382;44.768;17.206;2022-09-13T05:08:49;13.02;;;7.90;;
36351;SDS011;22382;44.768;17.206;2022-09-13T05:11:23;9.35;;;3.40;;
36351;SDS011;22382;44.768;17.206;2022-09-13T05:13:52;7.13;;;3.78;;
36351;SDS011;22382;44.768;17.206;2022-09-13T05:16:22;4.43;;;3.38;;
36351;SDS011;22382;44.768;17.206;2022-09-13T05:18:50;11.45;;;6.70;;
36351;SDS011;22382;44.768;17.206;2022-09-13T05:21:18;14.27;;;9.18;;
36351;SDS011;22382;44.768;17.206;2022-09-13T05:23:50;9.85;;;6.20;;
36351;SDS011;22382;44.768;17.206;2022-09-13T05:26:18;14.02;;;7.25;;
36351;SDS011;22382;44.768;17.206;2022-09-13T05:28:45;9.43;;;5.82;;
36351;SDS011;22382;44.768;17.206;2022-09-13T05:31:15;13.85;;;7.45;;
36351;SDS011;22382;44.768;17.206;2022-09-13T05:33:47;9.30;;;4.80;;
36351;SDS011;22382;44.768;17.206;2022-09-13T05:36:18;7.97;;;5.27;;
36351;SDS011;22382;44.768;17.206;2022-09-13T05:38:45;6.07;;;3.92;;
36351;SDS011;22382;44.768;17.206;2022-09-13T05:41:12;5.93;;;3.40;;
36351;SDS011;22382;44.768;17.206;2022-09-13T05:43:39;6.88;;;3.60;;
36351;SDS011;22382;44.768;17.206;2022-09-13T05:46:08;7.60;;;3.00;;
36351;SDS011;22382;44.768;17.206;2022-09-13T05:48:37;4.05;;;2.90;;
36351;SDS011;22382;44.768;17.206;2022-09-13T05:51:12;4.63;;;2.75;;
36351;SDS011;22382;44.768;17.206;2022-09-13T05:53:49;3.72;;;2.85;;
36351;SDS011;22382;44.768;17.206;2022-09-13T05:58:46;6.25;;;2.97;;
36351;SDS011;22382;44.768;17.206;2022-09-13T06:01:15;4.10;;;2.80;;
36351;SDS011;22382;44.768;17.206;2022-09-13T06:03:47;6.75;;;4.10;;
36351;SDS011;22382;44.768;17.206;2022-09-13T06:06:18;12.63;;;5.45;;
36351;SDS011;22382;44.768;17.206;2022-09-13T06:08:46;4.57;;;3.45;;
36351;SDS011;22382;44.768;17.206;2022-09-13T06:11:13;5.32;;;2.97;;
36351;SDS011;22382;44.768;17.206;2022-09-13T06:13:41;4.30;;;2.35;;
36351;SDS011;22382;44.768;17.206;2022-09-13T06:16:11;3.97;;;2.10;;
36351;SDS011;22382;44.768;17.206;2022-09-13T06:18:39;4.15;;;2.58;;
36351;SDS011;22382;44.768;17.206;2022-09-13T06:21:07;3.15;;;2.13;;
36351;SDS011;22382;44.768;17.206;2022-09-13T06:23:36;4.65;;;2.10;;
36351;SDS011;22382;44.768;17.206;2022-09-13T06:26:04;2.55;;;1.90;;
36351;SDS011;22382;44.768;17.206;2022-09-13T06:28:36;3.55;;;1.90;;
36351;SDS011;22382;44.768;17.206;2022-09-13T06:31:05;3.60;;;2.20;;
36351;SDS011;22382;44.768;17.206;2022-09-13T06:33:34;3.25;;;2.30;;
36351;SDS011;22382;44.768;17.206;2022-09-13T06:36:03;6.97;;;3.03;;
36351;SDS011;22382;44.768;17.206;2022-09-13T06:38:40;2.67;;;1.80;;
36351;SDS011;22382;44.768;17.206;2022-09-13T06:41:11;8.40;;;2.95;;
36351;SDS011;22382;44.768;17.206;2022-09-13T06:43:46;8.77;;;3.10;;
36351;SDS011;22382;44.768;17.206;2022-09-13T06:46:17;7.43;;;3.15;;
36351;SDS011;22382;44.768;17.206;2022-09-13T06:48:50;8.02;;;3.40;;
36351;SDS011;22382;44.768;17.206;2022-09-13T06:51:19;6.55;;;3.03;;
36351;SDS011;22382;44.768;17.206;2022-09-13T06:53:47;5.47;;;2.88;;
36351;SDS011;22382;44.768;17.206;2022-09-13T06:56:17;4.93;;;2.70;;
36351;SDS011;22382;44.768;17.206;2022-09-13T06:58:49;9.40;;;2.88;;
36351;SDS011;22382;44.768;17.206;2022-09-13T07:01:19;7.53;;;3.13;;
36351;SDS011;22382;44.768;17.206;2022-09-13T07:03:52;7.75;;;3.03;;
36351;SDS011;22382;44.768;17.206;2022-09-13T07:06:22;7.43;;;3.13;;
36351;SDS011;22382;44.768;17.206;2022-09-13T07:08:50;6.72;;;2.50;;
36351;SDS011;22382;44.768;17.206;2022-09-13T07:11:18;4.00;;;2.55;;
36351;SDS011;22382;44.768;17.206;2022-09-13T07:13:51;6.00;;;2.45;;
36351;SDS011;22382;44.768;17.206;2022-09-13T07:16:21;6.35;;;2.65;;
36351;SDS011;22382;44.768;17.206;2022-09-13T07:18:53;6.57;;;2.80;;
36351;SDS011;22382;44.768;17.206;2022-09-13T07:21:24;6.50;;;3.27;;
36351;SDS011;22382;44.768;17.206;2022-09-13T07:23:53;15.98;;;9.40;;
36351;SDS011;22382;44.768;17.206;2022-09-13T07:26:21;4.05;;;2.80;;
36351;SDS011;22382;44.768;17.206;2022-09-13T07:28:49;8.60;;;2.63;;
36351;SDS011;22382;44.768;17.206;2022-09-13T07:33:58;8.32;;;2.70;;
36351;SDS011;22382;44.768;17.206;2022-09-13T07:36:27;8.43;;;2.22;;
36351;SDS011;22382;44.768;17.206;2022-09-13T07:38:56;4.25;;;2.53;;
36351;SDS011;22382;44.768;17.206;2022-09-13T07:41:24;4.85;;;1.90;;
36351;SDS011;22382;44.768;17.206;2022-09-13T07:43:53;5.55;;;2.22;;
36351;SDS011;22382;44.768;17.206;2022-09-13T07:46:22;5.40;;;2.40;;
36351;SDS011;22382;44.768;17.206;2022-09-13T07:48:51;7.63;;;2.38;;
36351;SDS011;22382;44.768;17.206;2022-09-13T07:51:20;5.45;;;2.28;;
36351;SDS011;22382;44.768;17.206;2022-09-13T07:53:53;7.10;;;2.10;;
36351;SDS011;22382;44.768;17.206;2022-09-13T07:56:25;5.95;;;2.05;;
36351;SDS011;22382;44.768;17.206;2022-09-13T07:58:54;4.13;;;1.80;;
36351;SDS011;22382;44.768;17.206;2022-09-13T08:01:25;6.55;;;2.10;;
36351;SDS011;22382;44.768;17.206;2022-09-13T08:06:22;4.40;;;1.60;;
36351;SDS011;22382;44.768;17.206;2022-09-13T08:08:50;11.43;;;4.43;;
36351;SDS011;22382;44.768;17.206;2022-09-13T08:11:19;5.90;;;2.88;;
36351;SDS011;22382;44.768;17.206;2022-09-13T08:13:48;2.35;;;1.98;;
36351;SDS011;22382;44.768;17.206;2022-09-13T08:16:17;2.60;;;1.92;;
36351;SDS011;22382;44.768;17.206;2022-09-13T08:18:47;2.65;;;1.42;;
36351;SDS011;22382;44.768;17.206;2022-09-13T08:21:16;5.30;;;1.88;;
36351;SDS011;22382;44.768;17.206;2022-09-13T08:23:44;4.75;;;2.00;;
36351;SDS011;22382;44.768;17.206;2022-09-13T08:26:12;3.08;;;1.58;;
36351;SDS011;22382;44.768;17.206;2022-09-13T08:28:40;3.05;;;1.90;;
36351;SDS011;22382;44.768;17.206;2022-09-13T08:31:10;3.20;;;1.77;;
36351;SDS011;22382;44.768;17.206;2022-09-13T08:33:43;2.85;;;1.70;;
36351;SDS011;22382;44.768;17.206;2022-09-13T08:36:12;5.25;;;1.58;;
36351;SDS011;22382;44.768;17.206;2022-09-13T08:38:44;4.88;;;1.83;;
36351;SDS011;22382;44.768;17.206;2022-09-13T08:46:46;2.35;;;1.50;;
36351;SDS011;22382;44.768;17.206;2022-09-13T08:49:16;5.60;;;1.73;;
36351;SDS011;22382;44.768;17.206;2022-09-13T08:51:54;3.22;;;1.45;;
36351;SDS011;22382;44.768;17.206;2022-09-13T08:54:25;7.95;;;3.70;;
36351;SDS011;22382;44.768;17.206;2022-09-13T09:05:35;4.20;;;1.50;;
36351;SDS011;22382;44.768;17.206;2022-09-13T09:08:14;3.13;;;1.35;;
36351;SDS011;22382;44.768;17.206;2022-09-13T09:10:50;2.47;;;1.65;;
36351;SDS011;22382;44.768;17.206;2022-09-13T09:15:55;4.95;;;2.00;;
36351;SDS011;22382;44.768;17.206;2022-09-13T09:18:38;7.28;;;1.83;;
36351;SDS011;22382;44.768;17.206;2022-09-13T09:21:09;2.67;;;1.50;;
36351;SDS011;22382;44.768;17.206;2022-09-13T09:23:44;2.80;;;1.70;;
36351;SDS011;22382;44.768;17.206;2022-09-13T09:26:23;4.20;;;1.65;;
36351;SDS011;22382;44.768;17.206;2022-09-13T09:32:01;3.10;;;1.70;;
36351;SDS011;22382;44.768;17.206;2022-09-13T09:39:53;4.57;;;1.85;;
36351;SDS011;22382;44.768;17.206;2022-09-13T09:42:24;2.17;;;1.50;;
36351;SDS011;22382;44.768;17.206;2022-09-13T09:44:58;1.88;;;1.30;;
36351;SDS011;22382;44.768;17.206;2022-09-13T09:47:38;4.13;;;1.60;;
36351;SDS011;22382;44.768;17.206;2022-09-13T09:50:18;6.20;;;1.37;;
36351;SDS011;22382;44.768;17.206;2022-09-13T09:52:51;2.20;;;1.60;;
36351;SDS011;22382;44.768;17.206;2022-09-13T09:57:57;2.17;;;1.25;;
36351;SDS011;22382;44.768;17.206;2022-09-13T10:00:32;1.80;;;1.30;;
36351;SDS011;22382;44.768;17.206;2022-09-13T10:03:04;4.10;;;1.33;;
36351;SDS011;22382;44.768;17.206;2022-09-13T10:05:40;2.20;;;1.20;;
36351;SDS011;22382;44.768;17.206;2022-09-13T10:08:30;2.10;;;1.05;;
36351;SDS011;22382;44.768;17.206;2022-09-13T10:10:58;1.65;;;1.00;;
36351;SDS011;22382;44.768;17.206;2022-09-13T10:13:27;1.20;;;0.90;;
36351;SDS011;22382;44.768;17.206;2022-09-13T10:16:01;2.92;;;0.88;;
36351;SDS011;22382;44.768;17.206;2022-09-13T10:18:31;1.35;;;0.85;;
36351;SDS011;22382;44.768;17.206;2022-09-13T10:23:47;1.02;;;0.80;;
36351;SDS011;22382;44.768;17.206;2022-09-13T10:26:19;2.28;;;0.80;;
36351;SDS011;22382;44.768;17.206;2022-09-13T10:29:01;1.45;;;0.70;;
36351;SDS011;22382;44.768;17.206;2022-09-13T10:31:36;1.33;;;0.80;;
36351;SDS011;22382;44.768;17.206;2022-09-13T10:34:22;0.82;;;0.47;;
36351;SDS011;22382;44.768;17.206;2022-09-13T10:36:57;1.02;;;0.50;;
36351;SDS011;22382;44.768;17.206;2022-09-13T10:39:38;0.68;;;0.40;;
36351;SDS011;22382;44.768;17.206;2022-09-13T10:42:35;3.28;;;0.40;;
36351;SDS011;22382;44.768;17.206;2022-09-13T10:45:06;2.22;;;0.30;;
36351;SDS011;22382;44.768;17.206;2022-09-13T10:47:45;3.13;;;0.40;;
36351;SDS011;22382;44.768;17.206;2022-09-13T10:50:26;0.55;;;0.30;;
36351;SDS011;22382;44.768;17.206;2022-09-13T10:52:55;0.70;;;0.32;;
36351;SDS011;22382;44.768;17.206;2022-09-13T11:12:01;3.00;;;0.50;;
36351;SDS011;22382;44.768;17.206;2022-09-13T11:14:52;0.70;;;0.40;;
36351;SDS011;22382;44.768;17.206;2022-09-13T11:34:43;1.98;;;0.20;;
36351;SDS011;22382;44.768;17.206;2022-09-13T11:45:19;0.30;;;0.20;;
36351;SDS011;22382;44.768;17.206;2022-09-13T11:56:39;2.42;;;0.30;;
36351;SDS011;22382;44.768;17.206;2022-09-13T12:01:46;1.08;;;0.30;;
36351;SDS011;22382;44.768;17.206;2022-09-13T12:04:23;0.95;;;0.40;;
36351;SDS011;22382;44.768;17.206;2022-09-13T12:07:05;0.65;;;0.30;;
36351;SDS011;22382;44.768;17.206;2022-09-13T12:09:50;0.50;;;0.30;;
36351;SDS011;22382;44.768;17.206;2022-09-13T12:12:23;0.55;;;0.20;;
36351;SDS011;22382;44.768;17.206;2022-09-13T12:15:05;0.35;;;0.28;;
36351;SDS011;22382;44.768;17.206;2022-09-13T12:17:55;1.10;;;0.30;;
36351;SDS011;22382;44.768;17.206;2022-09-13T12:23:00;0.60;;;0.25;;
36351;SDS011;22382;44.768;17.206;2022-09-13T12:25:36;0.60;;;0.32;;
36351;SDS011;22382;44.768;17.206;2022-09-13T12:31:06;1.67;;;0.38;;
36351;SDS011;22382;44.768;17.206;2022-09-13T12:33:41;1.73;;;0.38;;
36351;SDS011;22382;44.768;17.206;2022-09-13T12:56:40;2.28;;;0.32;;
36351;SDS011;22382;44.768;17.206;2022-09-13T13:04:50;2.00;;;0.30;;
36351;SDS011;22382;44.768;17.206;2022-09-13T13:07:20;3.85;;;0.30;;
36351;SDS011;22382;44.768;17.206;2022-09-13T13:09:49;1.13;;;0.38;;
36351;SDS011;22382;44.768;17.206;2022-09-13T13:12:38;0.45;;;0.30;;
36351;SDS011;22382;44.768;17.206;2022-09-13T13:15:07;1.20;;;0.32;;
36351;SDS011;22382;44.768;17.206;2022-09-13T13:17:53;2.35;;;0.50;;
36351;SDS011;22382;44.768;17.206;2022-09-13T13:23:40;0.93;;;0.47;;
36351;SDS011;22382;44.768;17.206;2022-09-13T13:36:21;2.03;;;0.60;;
36351;SDS011;22382;44.768;17.206;2022-09-13T13:38:59;2.60;;;0.50;;
36351;SDS011;22382;44.768;17.206;2022-09-13T13:47:49;0.68;;;0.30;;
36351;SDS011;22382;44.768;17.206;2022-09-13T13:49:42;0.55;;;0.30;;
36351;SDS011;22382;44.768;17.206;2022-09-13T14:00:24;2.63;;;0.50;;
36351;SDS011;22382;44.768;17.206;2022-09-13T14:16:54;2.65;;;0.55;;
36351;SDS011;22382;44.768;17.206;2022-09-13T14:19:42;0.95;;;0.40;;
36351;SDS011;22382;44.768;17.206;2022-09-13T14:22:17;2.42;;;0.50;;
36351;SDS011;22382;44.768;17.206;2022-09-13T14:24:51;5.10;;;0.40;;
36351;SDS011;22382;44.768;17.206;2022-09-13T14:27:29;0.82;;;0.40;;
36351;SDS011;22382;44.768;17.206;2022-09-13T14:30:19;0.90;;;0.38;;
36351;SDS011;22382;44.768;17.206;2022-09-13T14:33:14;0.90;;;0.50;;
36351;SDS011;22382;44.768;17.206;2022-09-13T14:36:00;1.40;;;0.50;;
36351;SDS011;22382;44.768;17.206;2022-09-13T14:38:35;0.85;;;0.55;;
36351;SDS011;22382;44.768;17.206;2022-09-13T14:43:39;1.00;;;0.50;;
36351;SDS011;22382;44.768;17.206;2022-09-13T14:54:19;3.88;;;0.50;;
36351;SDS011;22382;44.768;17.206;2022-09-13T14:57:00;2.28;;;0.50;;
36351;SDS011;22382;44.768;17.206;2022-09-13T15:02:20;2.15;;;0.70;;
36351;SDS011;22382;44.768;17.206;2022-09-13T15:04:58;1.17;;;0.45;;
36351;SDS011;22382;44.768;17.206;2022-09-13T15:12:32;1.55;;;0.85;;
36351;SDS011;22382;44.768;17.206;2022-09-13T15:17:58;1.45;;;0.80;;
36351;SDS011;22382;44.768;17.206;2022-09-13T15:20:28;1.27;;;0.60;;
36351;SDS011;22382;44.768;17.206;2022-09-13T15:23:14;2.55;;;1.10;;
36351;SDS011;22382;44.768;17.206;2022-09-13T15:25:52;2.55;;;0.93;;
36351;SDS011;22382;44.768;17.206;2022-09-13T15:28:25;1.38;;;0.85;;
36351;SDS011;22382;44.768;17.206;2022-09-13T15:30:55;2.13;;;1.00;;
36351;SDS011;22382;44.768;17.206;2022-09-13T15:33:26;1.63;;;0.80;;
36351;SDS011;22382;44.768;17.206;2022-09-13T15:41:32;2.45;;;1.00;;
36351;SDS011;22382;44.768;17.206;2022-09-13T15:44:01;2.75;;;0.93;;
36351;SDS011;22382;44.768;17.206;2022-09-13T15:46:31;1.90;;;0.70;;
36351;SDS011;22382;44.768;17.206;2022-09-13T15:49:02;2.30;;;0.70;;
36351;SDS011;22382;44.768;17.206;2022-09-13T15:51:33;2.13;;;0.52;;
36351;SDS011;22382;44.768;17.206;2022-09-13T15:54:07;0.90;;;0.60;;
36351;SDS011;22382;44.768;17.206;2022-09-13T15:56:38;0.70;;;0.50;;
36351;SDS011;22382;44.768;17.206;2022-09-13T15:59:15;1.95;;;0.77;;
36351;SDS011;22382;44.768;17.206;2022-09-13T16:01:44;2.33;;;0.70;;
36351;SDS011;22382;44.768;17.206;2022-09-13T16:04:12;1.75;;;0.75;;
36351;SDS011;22382;44.768;17.206;2022-09-13T16:06:39;2.42;;;1.20;;
36351;SDS011;22382;44.768;17.206;2022-09-13T16:09:25;2.03;;;1.25;;
36351;SDS011;22382;44.768;17.206;2022-09-13T16:11:53;2.80;;;0.80;;
36351;SDS011;22382;44.768;17.206;2022-09-13T16:14:20;2.03;;;0.70;;
36351;SDS011;22382;44.768;17.206;2022-09-13T16:16:47;3.42;;;1.67;;
36351;SDS011;22382;44.768;17.206;2022-09-13T16:19:16;4.03;;;2.30;;
36351;SDS011;22382;44.768;17.206;2022-09-13T16:21:45;7.10;;;4.22;;
36351;SDS011;22382;44.768;17.206;2022-09-13T16:24:12;8.20;;;3.70;;
36351;SDS011;22382;44.768;17.206;2022-09-13T16:26:40;9.02;;;6.13;;
36351;SDS011;22382;44.768;17.206;2022-09-13T16:29:09;10.18;;;4.97;;
36351;SDS011;22382;44.768;17.206;2022-09-13T16:31:37;5.90;;;3.42;;
36351;SDS011;22382;44.768;17.206;2022-09-13T16:34:04;4.50;;;1.67;;
36351;SDS011;22382;44.768;17.206;2022-09-13T16:36:31;2.85;;;1.48;;
36351;SDS011;22382;44.768;17.206;2022-09-13T16:38:59;5.68;;;2.60;;
36351;SDS011;22382;44.768;17.206;2022-09-13T16:41:26;2.80;;;1.55;;
36351;SDS011;22382;44.768;17.206;2022-09-13T16:43:53;4.15;;;1.60;;
36351;SDS011;22382;44.768;17.206;2022-09-13T16:46:20;3.75;;;1.45;;
36351;SDS011;22382;44.768;17.206;2022-09-13T16:48:54;12.85;;;5.55;;
36351;SDS011;22382;44.768;17.206;2022-09-13T16:51:22;13.55;;;9.18;;
36351;SDS011;22382;44.768;17.206;2022-09-13T16:53:50;11.10;;;4.50;;
36351;SDS011;22382;44.768;17.206;2022-09-13T16:56:19;7.47;;;3.75;;
36351;SDS011;22382;44.768;17.206;2022-09-13T16:58:49;8.50;;;3.45;;
36351;SDS011;22382;44.768;17.206;2022-09-13T17:01:18;25.30;;;15.60;;
36351;SDS011;22382;44.768;17.206;2022-09-13T17:03:47;15.90;;;9.32;;
36351;SDS011;22382;44.768;17.206;2022-09-13T17:06:20;12.48;;;8.00;;
36351;SDS011;22382;44.768;17.206;2022-09-13T17:08:49;9.68;;;5.68;;
36351;SDS011;22382;44.768;17.206;2022-09-13T17:11:22;6.28;;;3.55;;
36351;SDS011;22382;44.768;17.206;2022-09-13T17:13:51;6.65;;;3.92;;
36351;SDS011;22382;44.768;17.206;2022-09-13T17:18:51;8.63;;;4.28;;
36351;SDS011;22382;44.768;17.206;2022-09-13T17:21:19;8.27;;;5.05;;
36351;SDS011;22382;44.768;17.206;2022-09-13T17:23:47;5.78;;;2.95;;
36351;SDS011;22382;44.768;17.206;2022-09-13T17:26:14;11.13;;;7.13;;
36351;SDS011;22382;44.768;17.206;2022-09-13T17:28:41;8.25;;;3.22;;
36351;SDS011;22382;44.768;17.206;2022-09-13T17:31:08;3.90;;;2.90;;
36351;SDS011;22382;44.768;17.206;2022-09-13T17:33:35;10.32;;;4.25;;
36351;SDS011;22382;44.768;17.206;2022-09-13T17:36:03;9.30;;;5.10;;
36351;SDS011;22382;44.768;17.206;2022-09-13T17:38:35;8.10;;;4.10;;
36351;SDS011;22382;44.768;17.206;2022-09-13T17:43:34;4.50;;;2.45;;
36351;SDS011;22382;44.768;17.206;2022-09-13T17:46:05;9.93;;;5.88;;
36351;SDS011;22382;44.768;17.206;2022-09-13T17:48:34;9.18;;;5.50;;
36351;SDS011;22382;44.768;17.206;2022-09-13T17:51:05;6.80;;;2.85;;
36351;SDS011;22382;44.768;17.206;2022-09-13T17:53:36;9.07;;;5.88;;
36351;SDS011;22382;44.768;17.206;2022-09-13T17:56:04;4.88;;;2.80;;
36351;SDS011;22382;44.768;17.206;2022-09-13T17:58:33;7.13;;;3.25;;
36351;SDS011;22382;44.768;17.206;2022-09-13T18:01:04;7.97;;;3.60;;
36351;SDS011;22382;44.768;17.206;2022-09-13T18:03:34;5.40;;;3.35;;
36351;SDS011;22382;44.768;17.206;2022-09-13T18:06:03;6.43;;;3.70;;
36351;SDS011;22382;44.768;17.206;2022-09-13T18:08:31;5.97;;;3.60;;
36351;SDS011;22382;44.768;17.206;2022-09-13T18:11:00;6.93;;;3.67;;
36351;SDS011;22382;44.768;17.206;2022-09-13T18:13:39;7.18;;;4.80;;
36351;SDS011;22382;44.768;17.206;2022-09-13T18:16:12;8.77;;;4.38;;
36351;SDS011;22382;44.768;17.206;2022-09-13T18:18:46;12.65;;;6.80;;
36351;SDS011;22382;44.768;17.206;2022-09-13T18:21:15;10.77;;;4.65;;
36351;SDS011;22382;44.768;17.206;2022-09-13T18:23:47;12.20;;;7.07;;
36351;SDS011;22382;44.768;17.206;2022-09-13T18:26:17;13.25;;;8.07;;
36351;SDS011;22382;44.768;17.206;2022-09-13T18:28:46;13.88;;;7.53;;
36351;SDS011;22382;44.768;17.206;2022-09-13T18:31:17;15.25;;;9.40;;
36351;SDS011;22382;44.768;17.206;2022-09-13T18:33:44;13.95;;;7.63;;
36351;SDS011;22382;44.768;17.206;2022-09-13T18:36:14;9.27;;;5.18;;
36351;SDS011;22382;44.768;17.206;2022-09-13T18:38:43;6.95;;;3.88;;
36351;SDS011;22382;44.768;17.206;2022-09-13T18:41:13;9.20;;;5.18;;
36351;SDS011;22382;44.768;17.206;2022-09-13T18:43:46;6.03;;;3.42;;
36351;SDS011;22382;44.768;17.206;2022-09-13T18:46:21;7.00;;;3.97;;
36351;SDS011;22382;44.768;17.206;2022-09-13T18:48:51;8.35;;;4.18;;
36351;SDS011;22382;44.768;17.206;2022-09-13T18:51:20;6.55;;;4.00;;
36351;SDS011;22382;44.768;17.206;2022-09-13T18:53:48;6.22;;;2.92;;
36351;SDS011;22382;44.768;17.206;2022-09-13T18:56:18;20.98;;;14.25;;
36351;SDS011;22382;44.768;17.206;2022-09-13T18:58:45;9.07;;;5.60;;
36351;SDS011;22382;44.768;17.206;2022-09-13T19:03:51;11.75;;;4.95;;
36351;SDS011;22382;44.768;17.206;2022-09-13T19:06:26;8.35;;;4.10;;
36351;SDS011;22382;44.768;17.206;2022-09-13T19:08:55;10.20;;;3.60;;
36351;SDS011;22382;44.768;17.206;2022-09-13T19:11:24;4.57;;;2.70;;
36351;SDS011;22382;44.768;17.206;2022-09-13T19:14:17;7.10;;;2.90;;
36351;SDS011;22382;44.768;17.206;2022-09-13T19:16:47;4.57;;;2.72;;
36351;SDS011;22382;44.768;17.206;2022-09-13T19:19:14;4.75;;;3.03;;
36351;SDS011;22382;44.768;17.206;2022-09-13T19:21:41;5.35;;;3.28;;